createdAt,value
2019-05-18T04:33:06.304Z,14.20
2019-05-18T04:35:34.344Z,14.30
2019-05-18T04:38:02.408Z,14.90
2019-05-18T04:40:30.387Z,15.30
2019-05-18T04:42:59.284Z,15.60
2019-05-18T04:45:31.445Z,15.70
2019-05-18T04:47:59.492Z,15.70
2019-05-18T04:50:27.541Z,15.70
2019-05-18T04:53:02.587Z,15.20
2019-05-18T04:55:36.303Z,14.80
2019-05-18T04:58:04.315Z,14.50
2019-05-18T05:00:44.977Z,14.40
2019-05-18T05:03:15.002Z,14.30
2019-05-18T05:05:47.627Z,14.30
2019-05-18T05:08:17.595Z,14.40
2019-05-18T05:10:51.578Z,14.20
2019-05-18T05:13:28.697Z,14.60
2019-05-18T05:15:57.660Z,14.60
2019-05-18T05:18:25.764Z,14.50
2019-05-18T05:21:29.368Z,14.60
2019-05-18T05:24:11.695Z,15.00
2019-05-18T05:27:07.801Z,15.30
2019-05-18T05:32:50.344Z,15.00
2019-05-18T05:35:18.453Z,15.00
2019-05-18T05:37:46.424Z,14.90
2019-05-18T05:40:14.497Z,15.40
2019-05-18T05:42:53.864Z,15.50
2019-05-18T05:45:28.913Z,15.10
2019-05-18T05:48:03.975Z,15.10
2019-05-18T05:50:36.092Z,14.90
2019-05-18T05:56:12.879Z,14.90
2019-05-18T05:59:18.786Z,15.70
2019-05-18T06:02:03.674Z,15.80
2019-05-18T06:05:05.089Z,15.70
2019-05-18T06:07:56.040Z,16.00
2019-05-18T06:10:39.422Z,16.40
2019-05-18T06:13:07.478Z,16.60
2019-05-18T06:15:35.580Z,16.70
2019-05-18T06:18:08.616Z,16.60
2019-05-18T06:20:50.368Z,16.60
2019-05-18T06:23:06.369Z,17.00
2019-05-18T06:25:40.200Z,17.00
2019-05-18T06:28:17.282Z,17.30
2019-05-18T06:30:45.284Z,17.30
2019-05-18T06:33:13.263Z,17.40
2019-05-18T06:35:41.261Z,17.50
2019-05-18T06:38:09.305Z,17.60
2019-05-18T06:40:41.922Z,17.60
2019-05-18T06:43:32.931Z,17.70
2019-05-18T06:48:40.938Z,17.80
2019-05-18T06:51:10.996Z,17.90
2019-05-18T06:53:48.808Z,17.80
2019-05-18T06:56:16.875Z,18.00
2019-05-18T06:58:49.290Z,18.00
2019-05-18T07:01:17.259Z,17.90
2019-05-18T07:03:50.463Z,18.00
2019-05-18T07:06:18.490Z,18.00
2019-05-18T07:08:47.455Z,18.00
2019-05-18T07:11:15.448Z,18.10
2019-05-18T07:13:43.427Z,18.00
2019-05-18T07:16:22.428Z,18.30
2019-05-18T07:18:58.547Z,18.40
2019-05-18T07:21:32.591Z,18.40
2019-05-18T07:24:00.755Z,18.40
2019-05-18T07:26:30.895Z,18.50
2019-05-18T07:29:25.503Z,18.40
2019-05-18T07:31:53.932Z,18.40
2019-05-18T07:34:26.509Z,18.50
2019-05-18T07:43:05.034Z,18.60
2019-05-18T07:45:39.051Z,18.60
2019-05-18T07:48:08.177Z,18.70
2019-05-18T07:50:45.697Z,18.70
2019-05-18T07:53:15.802Z,18.40
2019-05-18T07:55:46.599Z,18.50
2019-05-18T07:58:14.799Z,18.60
2019-05-18T08:00:42.912Z,18.70
2019-05-18T08:03:10.953Z,18.80
2019-05-18T08:05:40.911Z,19.10
2019-05-18T08:08:14.625Z,18.90
2019-05-18T08:10:53.576Z,19.10
2019-05-18T08:13:23.544Z,19.10
2019-05-18T08:15:55.715Z,19.20
2019-05-18T08:18:29.700Z,19.30
2019-05-18T08:21:00.717Z,19.40
2019-05-18T08:23:29.740Z,19.40
2019-05-18T08:25:59.675Z,19.20
2019-05-18T08:28:27.657Z,19.20
2019-05-18T08:30:56.655Z,19.40
2019-05-18T08:33:37.628Z,19.50
2019-05-18T08:36:15.688Z,19.60
2019-05-18T08:38:43.667Z,19.90
2019-05-18T08:41:11.655Z,19.90
2019-05-18T08:43:40.615Z,19.70
2019-05-18T08:46:08.609Z,19.50
2019-05-18T08:48:39.657Z,19.60
2019-05-18T08:51:07.718Z,19.90
2019-05-18T08:53:35.697Z,20.10
2019-05-18T08:56:03.722Z,20.10
2019-05-18T08:58:31.741Z,20.00
2019-05-18T09:00:59.742Z,20.20
2019-05-18T09:03:29.729Z,19.90
2019-05-18T09:06:08.554Z,19.80
2019-05-18T09:08:36.588Z,20.10
2019-05-18T09:11:06.546Z,20.30
2019-05-18T09:13:38.073Z,20.40
2019-05-18T09:16:17.286Z,20.50
2019-05-18T09:18:45.346Z,20.50
2019-05-18T09:21:16.099Z,20.70
2019-05-18T09:23:44.085Z,20.80
2019-05-18T09:26:21.351Z,20.80
2019-05-18T09:28:52.412Z,20.90
2019-05-18T09:31:38.029Z,21.00
2019-05-18T09:34:14.581Z,21.00
2019-05-18T09:36:48.631Z,20.90
2019-05-18T09:39:16.613Z,20.90
2019-05-18T09:41:57.836Z,21.10
2019-05-18T09:44:26.784Z,21.00
2019-05-18T09:46:54.787Z,21.20
2019-05-18T09:49:22.794Z,21.40
2019-05-18T09:51:57.522Z,21.40
2019-05-18T09:54:31.283Z,21.40
2019-05-18T09:57:02.923Z,21.40
2019-05-18T09:59:30.981Z,21.40
2019-05-18T10:01:59.947Z,21.50
2019-05-18T10:04:28.102Z,21.60
2019-05-18T10:06:56.083Z,21.90
2019-05-18T10:09:38.772Z,21.80
2019-05-18T10:12:10.085Z,22.00
2019-05-18T10:14:41.351Z,21.70
2019-05-18T10:17:22.035Z,21.60
2019-05-18T10:19:52.088Z,21.70
2019-05-18T10:22:29.136Z,21.80
2019-05-18T10:25:08.618Z,21.70
2019-05-18T10:27:42.746Z,21.80
2019-05-18T10:30:14.412Z,21.80
2019-05-18T10:32:42.395Z,21.80
2019-05-18T10:35:22.452Z,21.70
2019-05-18T10:37:50.431Z,22.00
2019-05-18T10:40:18.784Z,22.10
2019-05-18T10:42:46.774Z,22.10
2019-05-18T10:45:15.205Z,22.10
2019-05-18T10:47:43.218Z,22.30
2019-05-18T10:50:11.546Z,22.30
2019-05-18T10:52:42.861Z,22.40
2019-05-18T10:55:23.851Z,22.40
2019-05-18T10:57:51.902Z,22.60
2019-05-18T11:00:49.999Z,22.50
2019-05-18T11:03:24.034Z,22.50
2019-05-18T11:05:52.016Z,22.00
2019-05-18T11:08:38.801Z,22.10
2019-05-18T11:11:18.237Z,22.20
2019-05-18T11:13:48.290Z,22.10
2019-05-18T11:16:18.224Z,22.40
2019-05-18T11:19:04.350Z,22.50
2019-05-18T11:21:54.435Z,22.30
2019-05-18T11:24:25.740Z,22.50
2019-05-18T11:26:55.675Z,22.70
2019-05-18T11:29:26.775Z,22.70
2019-05-18T11:31:56.729Z,22.70
2019-05-18T11:34:48.706Z,23.10
2019-05-18T11:37:21.649Z,23.10
2019-05-18T11:40:06.313Z,23.10
2019-05-18T11:42:37.493Z,22.90
2019-05-18T11:45:17.441Z,22.90
2019-05-18T11:47:46.440Z,22.90
2019-05-18T11:50:16.975Z,22.90
2019-05-18T11:52:44.989Z,23.20
2019-05-18T11:55:19.057Z,23.30
2019-05-18T11:57:53.823Z,23.40
2019-05-18T12:00:23.089Z,23.60
2019-05-18T12:02:51.125Z,23.70
2019-05-18T12:05:19.188Z,23.50
2019-05-18T12:07:47.232Z,23.50
2019-05-18T12:10:18.599Z,23.30
2019-05-18T12:12:46.965Z,23.40
2019-05-18T12:15:15.371Z,23.40
2019-05-18T12:17:47.100Z,23.60
2019-05-18T12:20:15.409Z,23.90
2019-05-18T12:22:43.416Z,23.90
2019-05-18T12:25:14.175Z,24.00
2019-05-18T12:27:42.203Z,23.90
2019-05-18T12:30:10.729Z,23.90
2019-05-18T12:32:47.891Z,23.90
2019-05-18T12:35:16.801Z,24.00
2019-05-18T12:37:44.942Z,23.90
2019-05-18T12:40:14.600Z,23.90
2019-05-18T12:42:43.684Z,24.00
2019-05-18T12:45:12.269Z,24.30
2019-05-18T12:47:40.382Z,24.30
2019-05-18T12:50:18.019Z,24.40
2019-05-18T12:52:45.994Z,24.50
2019-05-18T12:55:14.252Z,24.30
2019-05-18T12:57:42.354Z,24.20
2019-05-18T13:00:11.709Z,24.00
2019-05-18T13:02:56.001Z,24.10
2019-05-18T13:05:24.012Z,24.00
2019-05-18T13:07:52.085Z,24.20
2019-05-18T13:10:23.165Z,24.20
2019-05-18T13:12:57.918Z,24.40
2019-05-18T13:15:25.915Z,24.70
2019-05-18T13:17:53.890Z,24.60
2019-05-18T13:20:22.059Z,24.70
2019-05-18T13:22:51.116Z,24.50
2019-05-18T13:25:22.179Z,24.60
2019-05-18T13:27:51.143Z,24.70
2019-05-18T13:30:22.087Z,24.60
2019-05-18T13:32:50.243Z,24.70
2019-05-18T13:35:27.339Z,24.40
2019-05-18T13:37:56.374Z,24.40
2019-05-18T13:40:24.523Z,24.30
2019-05-18T13:43:15.580Z,24.50
2019-05-18T13:45:54.546Z,24.80
2019-05-18T13:48:24.498Z,24.60
2019-05-18T13:50:52.560Z,24.30
2019-05-18T13:53:25.637Z,24.50
2019-05-18T13:55:53.643Z,24.80
2019-05-18T13:58:21.683Z,24.70
2019-05-18T14:00:49.749Z,24.70
2019-05-18T14:03:20.783Z,24.90
2019-05-18T14:05:48.839Z,24.80
2019-05-18T14:08:16.819Z,24.70
2019-05-18T14:10:44.818Z,24.70
2019-05-18T14:13:13.806Z,25.00
2019-05-18T14:15:42.797Z,25.00
2019-05-18T14:18:10.920Z,25.10
2019-05-18T14:20:43.017Z,25.20
2019-05-18T14:23:11.021Z,25.00
2019-05-18T14:25:39.280Z,25.30
2019-05-18T14:28:13.376Z,25.40
2019-05-18T14:30:42.501Z,25.30
2019-05-18T14:33:13.495Z,25.30
2019-05-18T14:35:41.558Z,24.90
2019-05-18T14:38:15.625Z,24.90
2019-05-18T14:40:43.680Z,24.90
2019-05-18T14:43:11.815Z,25.10
2019-05-18T14:45:40.704Z,24.90
2019-05-18T14:48:08.808Z,25.00
2019-05-18T14:50:46.103Z,25.10
2019-05-18T14:53:14.144Z,24.80
2019-05-18T14:55:42.172Z,25.10
2019-05-18T14:58:20.332Z,25.00
2019-05-18T15:00:48.398Z,25.10
2019-05-18T15:03:19.232Z,25.10
2019-05-18T15:05:47.462Z,25.20
2019-05-18T15:08:21.624Z,25.30
2019-05-18T15:10:49.879Z,25.30
2019-05-18T15:13:26.647Z,25.20
2019-05-18T15:16:01.103Z,25.20
2019-05-18T15:18:29.236Z,25.20
2019-05-18T15:20:57.351Z,25.00
2019-05-18T15:23:27.527Z,25.10
2019-05-18T15:25:55.685Z,25.10
2019-05-18T15:28:23.785Z,24.90
2019-05-18T15:30:57.333Z,24.90
2019-05-18T15:33:29.682Z,24.80
2019-05-18T15:35:57.746Z,24.90
2019-05-18T15:38:25.965Z,25.00
2019-05-18T15:40:54.082Z,24.90
2019-05-18T15:43:26.136Z,25.00
2019-05-18T15:45:54.332Z,24.90
2019-05-18T15:48:25.228Z,24.90
2019-05-18T15:50:54.585Z,25.00
2019-05-18T15:53:22.636Z,25.10
2019-05-18T15:56:04.473Z,24.90
2019-05-18T15:58:22.608Z,24.70
2019-05-18T16:00:58.572Z,24.90
2019-05-18T16:03:26.682Z,25.10
2019-05-18T16:06:06.958Z,25.10
2019-05-18T16:08:53.523Z,25.00
2019-05-18T16:11:21.730Z,24.90
2019-05-18T16:13:49.864Z,24.80
2019-05-18T16:16:18.073Z,24.60
2019-05-18T16:18:52.217Z,24.90
2019-05-18T16:21:23.064Z,25.10
2019-05-18T16:23:51.156Z,24.90
2019-05-18T16:26:21.611Z,24.70
2019-05-18T16:28:54.788Z,24.70
2019-05-18T16:31:24.786Z,25.10
2019-05-18T16:33:52.836Z,24.90
2019-05-18T16:36:27.059Z,24.60
2019-05-18T16:39:00.947Z,24.20
2019-05-18T16:41:28.928Z,24.00
2019-05-18T16:44:19.988Z,23.90
2019-05-18T16:46:55.168Z,23.40
2019-05-18T16:49:33.294Z,23.00
2019-05-18T16:52:01.357Z,22.70
2019-05-18T16:54:37.130Z,22.80
2019-05-18T16:57:05.122Z,22.50
2019-05-18T16:59:39.193Z,22.40
2019-05-18T17:02:09.188Z,22.20
2019-05-18T17:04:43.866Z,22.40
2019-05-18T17:07:11.868Z,22.60
2019-05-18T17:09:39.919Z,22.50
2019-05-18T17:12:23.539Z,21.90
2019-05-18T17:15:04.815Z,21.80
2019-05-18T17:23:11.901Z,22.00
2019-05-18T17:25:43.330Z,21.80
2019-05-18T17:28:23.593Z,22.00
2019-05-18T17:30:58.049Z,21.90
2019-05-18T17:33:29.549Z,21.60
2019-05-18T17:42:04.853Z,21.90
2019-05-18T17:44:32.721Z,21.50
2019-05-18T17:47:12.646Z,21.20
2019-05-18T17:49:47.837Z,21.10
2019-05-18T17:52:16.036Z,21.30
2019-05-18T17:54:48.088Z,21.20
2019-05-18T17:57:19.416Z,21.30
2019-05-18T18:00:01.266Z,21.20
2019-05-18T18:02:33.665Z,21.00
2019-05-18T18:05:16.738Z,21.00
2019-05-18T18:07:58.540Z,20.80
2019-05-18T18:10:44.648Z,20.70
2019-05-18T18:16:46.821Z,20.60
2019-05-18T18:22:35.186Z,20.40
2019-05-18T18:28:24.184Z,19.90
2019-05-18T18:31:24.191Z,19.80
2019-05-18T18:37:10.443Z,19.70
2019-05-18T18:39:55.420Z,19.70
2019-05-18T18:42:45.434Z,19.60
2019-05-18T18:45:26.207Z,19.10
2019-05-18T18:48:32.524Z,18.80
2019-05-18T18:55:22.540Z,18.70
2019-05-18T18:57:14.060Z,18.70
2019-05-18T18:59:57.570Z,18.80
2019-05-18T19:02:27.595Z,18.80
2019-05-18T19:04:59.473Z,18.90
2019-05-18T19:07:47.869Z,19.00
2019-05-18T19:10:16.546Z,18.90
2019-05-18T19:12:46.349Z,18.80
2019-05-18T19:15:25.336Z,18.70
2019-05-18T19:18:04.433Z,18.80
2019-05-18T19:20:34.154Z,18.70
2019-05-18T19:25:51.955Z,18.60
2019-05-18T19:28:24.836Z,18.90
2019-05-18T19:31:06.920Z,19.00
2019-05-18T19:33:44.549Z,19.50
2019-05-18T19:36:14.370Z,19.60
2019-05-18T19:38:48.681Z,19.50
2019-05-18T19:41:26.766Z,19.80
2019-05-18T19:44:01.702Z,19.90
2019-05-18T19:46:47.528Z,19.50
2019-05-18T19:49:12.483Z,19.30
2019-05-18T19:51:41.742Z,19.00
2019-05-18T19:54:17.549Z,19.10
2019-05-18T19:56:54.769Z,18.90
2019-05-18T20:00:19.831Z,18.50
2019-05-18T20:02:02.619Z,18.40
2019-05-18T20:04:36.648Z,18.30
2019-05-18T20:07:06.799Z,18.50
2019-05-18T20:09:52.912Z,18.30
2019-05-18T20:12:30.085Z,18.10
2019-05-18T20:15:03.085Z,17.90
2019-05-18T20:17:51.799Z,17.80
2019-05-18T20:20:30.765Z,17.80
2019-05-18T20:23:18.883Z,17.70
2019-05-18T20:25:59.656Z,17.60
2019-05-18T20:34:38.558Z,17.30
2019-05-18T20:37:47.798Z,17.20
2019-05-18T20:44:01.699Z,17.10
2019-05-18T20:45:46.786Z,17.00
2019-05-18T20:48:29.422Z,17.00
2019-05-18T20:51:02.461Z,16.90
2019-05-18T20:53:31.357Z,16.70
2019-05-18T20:56:10.888Z,16.60
2019-05-18T20:58:49.271Z,16.60
2019-05-18T21:01:23.606Z,16.60
2019-05-18T21:04:14.722Z,16.60
2019-05-18T21:07:00.264Z,16.60
2019-05-18T21:09:48.255Z,16.70
2019-05-18T21:12:16.451Z,16.80
2019-05-18T21:17:40.750Z,16.70
2019-05-18T21:23:05.049Z,16.60
2019-05-18T21:25:36.158Z,16.60
2019-05-18T21:28:13.543Z,16.60
2019-05-18T21:30:57.677Z,16.50
2019-05-18T21:33:26.113Z,16.50
2019-05-18T21:36:06.620Z,16.50
2019-05-18T21:38:57.942Z,16.50
2019-05-18T21:41:29.490Z,16.50
2019-05-18T21:44:02.918Z,16.30
2019-05-18T21:46:38.933Z,16.40
2019-05-18T21:49:06.877Z,16.30
2019-05-18T21:51:34.915Z,16.30
2019-05-18T21:54:08.234Z,16.40
2019-05-18T21:56:36.295Z,16.50
2019-05-18T21:59:12.656Z,16.60
2019-05-18T22:01:50.998Z,16.70
2019-05-18T22:04:24.460Z,16.80
2019-05-18T22:07:04.754Z,17.10
2019-05-18T22:09:45.846Z,17.30
2019-05-18T22:12:16.450Z,17.70
2019-05-18T22:14:44.566Z,18.20
2019-05-18T22:17:24.589Z,18.50
2019-05-18T22:20:02.369Z,18.50
2019-05-18T22:22:42.715Z,18.80
2019-05-18T22:25:25.521Z,18.80
2019-05-18T22:28:01.713Z,18.70
2019-05-18T22:30:38.366Z,18.70
2019-05-18T22:33:07.417Z,18.80
2019-05-18T22:35:37.192Z,18.80
2019-05-18T22:38:05.306Z,18.90
2019-05-18T22:40:34.988Z,18.90
2019-05-18T22:43:03.119Z,19.10
2019-05-18T22:45:31.275Z,19.10
2019-05-18T22:48:01.581Z,19.00
2019-05-18T22:50:29.710Z,19.10
2019-05-18T22:52:59.509Z,19.10
2019-05-18T22:55:29.171Z,19.00
2019-05-18T22:57:58.327Z,18.90
2019-05-18T23:00:26.320Z,18.70
2019-05-18T23:02:54.568Z,18.80
2019-05-18T23:05:24.697Z,18.70
2019-05-18T23:08:01.730Z,18.60
2019-05-18T23:10:35.594Z,18.70
2019-05-18T23:13:03.624Z,18.80
2019-05-18T23:15:31.621Z,18.60
2019-05-18T23:17:59.684Z,18.60
2019-05-18T23:20:29.576Z,18.30
2019-05-18T23:22:57.615Z,18.20
2019-05-18T23:25:26.638Z,18.00
2019-05-18T23:27:54.647Z,18.20
